This is the latest recevied weather packets stored in our database for station/object W4DEX-2. If no packets are shown the sender has not sent any weather packets the latest 10 day(s).
| Time | Temp. | Humidity | Pressure | Rain* | Wind** | Luminosity | Snow |
|---|---|---|---|---|---|---|---|
| 1777659003 | 13.89° C | 59% | 1014.1 hPa | 0 mm | 5.81 m/s, 178° | - | - |
| 1777658703 | 13.89° C | 58% | 1014.1 hPa | 0 mm | 5.81 m/s, 180° | - | - |
| 1777658406 | 13.89° C | 58% | 1014 hPa | 0 mm | 5.81 m/s, 178° | - | - |
| 1777657503 | 13.89° C | 56% | 1014.2 hPa | 0 mm | 4.92 m/s, 175° | - | - |
| 1777657203 | 13.89° C | 57% | 1014.3 hPa | 0 mm | 4.92 m/s, 175° | - | - |
| 1777656902 | 13.89° C | 57% | 1014.4 hPa | 0 mm | 4.47 m/s, 180° | - | - |
| 1777656602 | 13.89° C | 56% | 1014.8 hPa | 0 mm | 5.36 m/s, 179° | - | - |
| 1777656302 | 13.89° C | 55% | 1014.5 hPa | 0 mm | 4.92 m/s, 181° | - | - |
| 1777655702 | 13.89° C | 55% | 1014.5 hPa | 0 mm | 5.36 m/s, 182° | - | - |
| 1777655402 | 13.89° C | 52% | 1014.5 hPa | 0 mm | 4.47 m/s, 175° | - | - |
| 1777653302 | 13.33° C | 53% | 1014.5 hPa | 0 mm | 2.68 m/s, 171° | - | - |
| 1777653002 | 13.33° C | 55% | 1014.8 hPa | 0 mm | 5.36 m/s, 180° | - | - |
| 1777652702 | 12.78° C | 55% | 1014.9 hPa | 0 mm | 5.36 m/s, 183° | - | - |
| 1777652402 | 12.78° C | 56% | 1014.9 hPa | 0 mm | 4.92 m/s, 171° | - | - |
| 1777652103 | 12.78° C | 55% | 1015.1 hPa | 0 mm | 4.92 m/s, 175° | - | - |
| 1777651814 | 13.33° C | 54% | 1015.1 hPa | 0 mm | 5.36 m/s, 174° | - | - |
| 1777651502 | 13.33° C | 55% | 1014.9 hPa | 0 mm | 5.81 m/s, 175° | - | - |
| 1777651202 | 13.33° C | 56% | 1015.1 hPa | 0 mm | 5.36 m/s, 174° | - | - |
| 1777650903 | 13.33° C | 56% | 1015.2 hPa | 0 mm | 5.36 m/s, 172° | - | - |
| 1777650603 | 13.33° C | 56% | 1015.1 hPa | 0 mm | 5.36 m/s, 176° | - | - |
| 1777650302 | 13.33° C | 55% | 1015.1 hPa | 0 mm | 5.36 m/s, 180° | - | - |
| 1777650002 | 13.33° C | 53% | 1014.9 hPa | 0 mm | 5.36 m/s, 169° | - | - |
| 1777649102 | 13.33° C | 52% | 1015 hPa | 0 mm | 5.81 m/s, 175° | - | - |
| 1777648802 | 13.33° C | 52% | 1015 hPa | 0 mm | 5.36 m/s, 175° | - | - |
| 1777648502 | 12.78° C | 53% | 1015.2 hPa | 0 mm | 5.36 m/s, 177° | - | - |
* Rain latest hour (hover to see other rain measurements)
** Current wind speed in m/s (hover to see current wind gust speed)